Time;durP1;ratioP1;P1;durP2;ratioP2;P2;SDS_P1;SDS_P2;PMS_P1;PMS_P2;Temp;Humidity;BMP_temperature;BMP_pressure;BME280_temperature;BME280_humidity;BME280_pressure;Samples;Min_cycle;Max_cycle;Signal;HPM_P1;HPM_P2
2022/10/25 00:00:35;;;;;;;19.70;8.88;;;12.20;99.90;;;;;;4931009;28;20079;-62
2022/10/25 00:03:00;;;;;;;16.95;9.02;;;12.20;99.90;;;;;;4948257;28;20117;-62
2022/10/25 00:05:26;;;;;;;19.48;9.25;;;12.20;99.90;;;;;;4942152;28;20078;-63
2022/10/25 00:07:52;;;;;;;25.73;9.32;;;12.20;99.90;;;;;;4930396;28;20506;-63
2022/10/25 00:10:18;;;;;;;24.55;11.80;;;12.10;99.90;;;;;;4936920;28;20134;-64
2022/10/25 00:12:45;;;;;;;21.75;10.48;;;12.10;99.90;;;;;;4943225;28;20062;-62
2022/10/25 00:15:13;;;;;;;21.35;10.68;;;12.10;99.90;;;;;;4947192;28;20421;-64
2022/10/25 00:17:40;;;;;;;23.95;12.32;;;12.10;99.90;;;;;;4936673;28;20073;-62
2022/10/25 00:20:06;;;;;;;25.63;12.43;;;12.10;99.90;;;;;;4946457;28;20496;-63
2022/10/25 00:22:32;;;;;;;25.05;13.80;;;12.10;99.90;;;;;;4941868;28;20177;-64
2022/10/25 00:24:58;;;;;;;27.42;13.00;;;12.10;99.90;;;;;;4937813;28;20039;-62
2022/10/25 00:27:24;;;;;;;23.73;14.23;;;12.10;99.90;;;;;;4939392;28;21856;-63
2022/10/25 00:29:51;;;;;;;22.65;12.43;;;12.10;99.90;;;;;;4949236;28;20046;-61
2022/10/25 00:32:17;;;;;;;24.67;11.48;;;12.10;99.90;;;;;;4946841;28;20171;-62
2022/10/25 00:34:43;;;;;;;31.58;12.43;;;12.10;99.90;;;;;;4938461;28;20782;-64
2022/10/25 00:37:09;;;;;;;23.23;12.45;;;12.10;99.90;;;;;;4943632;28;20079;-63
2022/10/25 00:39:35;;;;;;;28.15;14.02;;;12.10;99.90;;;;;;4945863;28;20528;-63
2022/10/25 00:42:01;;;;;;;35.35;14.13;;;12.10;99.90;;;;;;4935169;28;20122;-64
2022/10/25 00:44:39;;;;;;;31.27;16.77;;;12.10;99.90;;;;;;4932292;28;20074;-63
2022/10/25 00:47:20;;;;;;;24.20;12.80;;;12.10;99.90;;;;;;4940643;28;20047;-62
2022/10/25 00:50:31;;;;;;;26.40;12.55;;;12.10;99.90;;;;;;4941620;28;20109;-63
2022/10/25 00:53:03;;;;;;;25.55;12.95;;;12.10;99.90;;;;;;4867054;29;20195;-63
2022/10/25 00:55:30;;;;;;;26.20;11.98;;;12.10;99.90;;;;;;4868012;29;20052;-62
2022/10/25 00:58:02;;;;;;;29.63;12.88;;;12.10;99.90;;;;;;4912606;28;20058;-63
2022/10/25 01:06:32;;;;;;;30.58;15.25;;;12.20;99.90;;;;;;4878294;26;20075;-64
2022/10/25 01:08:59;;;;;;;32.08;15.82;;;12.20;99.90;;;;;;4907023;29;20055;-64
2022/10/25 01:11:25;;;;;;;34.05;15.32;;;12.20;99.90;;;;;;4911804;29;20118;-64
2022/10/25 01:13:52;;;;;;;36.45;17.58;;;12.30;99.90;;;;;;4878395;29;20130;-64
2022/10/25 01:16:40;;;;;;;29.45;15.00;;;12.30;99.90;;;;;;4878329;29;20060;-64
2022/10/25 01:19:18;;;;;;;34.75;15.98;;;12.30;99.90;;;;;;4906472;29;20110;-64
2022/10/25 01:22:00;;;;;;;36.25;16.00;;;12.30;99.90;;;;;;4882434;29;20089;-63
2022/10/25 01:24:26;;;;;;;32.10;17.48;;;12.30;99.90;;;;;;4886026;29;20063;-64
2022/10/25 01:27:48;;;;;;;31.90;16.30;;;12.30;99.90;;;;;;4885178;29;20051;-63
2022/10/25 01:30:21;;;;;;;29.75;14.52;;;12.40;99.90;;;;;;4854198;29;20054;-64
2022/10/25 01:32:50;;;;;;;31.92;14.85;;;12.40;99.90;;;;;;4890249;29;21899;-64
2022/10/25 01:35:26;;;;;;;32.13;16.00;;;12.40;99.90;;;;;;4882421;29;20486;-63
2022/10/25 01:38:05;;;;;;;30.73;15.02;;;12.50;99.90;;;;;;4904019;29;20044;-64
2022/10/25 01:40:43;;;;;;;30.00;14.35;;;12.50;99.90;;;;;;4882777;29;20476;-63
2022/10/25 01:43:21;;;;;;;35.85;15.13;;;12.50;99.90;;;;;;4898876;29;20054;-63
2022/10/25 01:45:54;;;;;;;38.55;16.20;;;12.50;99.90;;;;;;4881076;29;20054;-64
2022/10/25 01:48:29;;;;;;;;;;;12.50;99.90;;;;;;4885331;29;20563;-64
2022/10/25 01:51:09;;;;;;;32.92;14.60;;;12.60;99.90;;;;;;4890626;29;20002;-63
2022/10/25 01:53:50;;;;;;;27.60;12.77;;;12.50;99.90;;;;;;4887229;29;20792;-64
2022/10/25 01:56:26;;;;;;;29.17;13.73;;;12.60;99.90;;;;;;4888398;29;20059;-64
2022/10/25 01:59:15;;;;;;;32.47;13.40;;;12.50;99.90;;;;;;4894354;29;20187;-64
2022/10/25 02:01:50;;;;;;;26.58;12.00;;;12.50;99.90;;;;;;4896207;29;20043;-66
2022/10/25 02:04:57;;;;;;;24.42;11.65;;;12.50;99.90;;;;;;4897438;29;20056;-66
2022/10/25 02:07:29;;;;;;;24.65;11.60;;;12.50;99.90;;;;;;4850110;29;20503;-66
2022/10/25 02:10:22;;;;;;;24.85;11.95;;;12.50;99.90;;;;;;4843227;29;20049;-66
2022/10/25 02:13:03;;;;;;;25.83;11.90;;;12.50;99.90;;;;;;4844887;29;20132;-65
2022/10/25 02:15:57;;;;;;;23.42;11.70;;;12.50;99.90;;;;;;4842932;29;20071;-66
2022/10/25 02:18:28;;;;;;;24.50;11.05;;;12.50;99.90;;;;;;4867505;29;20057;-65
2022/10/25 02:20:56;;;;;;;22.48;11.43;;;12.50;99.90;;;;;;4863729;29;20052;-66
2022/10/25 02:23:23;;;;;;;26.55;11.57;;;12.60;99.90;;;;;;4846777;29;20066;-66
2022/10/25 02:25:52;;;;;;;20.90;11.48;;;12.60;99.90;;;;;;4861343;29;20063;-65
2022/10/25 02:28:22;;;;;;;22.67;11.80;;;12.60;99.90;;;;;;4877074;29;20368;-66
2022/10/25 02:30:51;;;;;;;22.65;11.55;;;12.60;99.90;;;;;;4878041;29;20587;-65
2022/10/25 02:33:17;;;;;;;21.38;11.27;;;12.60;99.90;;;;;;4863930;29;20052;-66
2022/10/25 02:35:43;;;;;;;24.73;11.10;;;12.60;99.90;;;;;;4876201;29;20158;-66
2022/10/25 02:38:09;;;;;;;21.13;11.52;;;12.60;99.90;;;;;;4881369;29;20140;-66
2022/10/25 02:40:35;;;;;;;22.75;10.98;;;12.60;99.90;;;;;;4850716;29;20063;-66
2022/10/25 02:43:01;;;;;;;23.10;11.40;;;12.60;99.90;;;;;;4863614;29;20055;-66
2022/10/25 02:45:27;;;;;;;21.90;11.35;;;12.60;99.90;;;;;;4849566;29;21307;-66
2022/10/25 02:47:53;;;;;;;20.00;11.25;;;12.60;99.90;;;;;;4848980;29;20091;-65
2022/10/25 02:50:18;;;;;;;20.73;12.25;;;12.60;99.90;;;;;;4849288;29;20052;-66
2022/10/25 02:52:44;;;;;;;28.70;12.65;;;12.60;99.90;;;;;;4883467;29;20057;-66
2022/10/25 02:55:10;;;;;;;25.50;12.05;;;12.60;99.90;;;;;;4845926;29;20313;-67
2022/10/25 02:57:37;;;;;;;29.67;12.48;;;12.60;99.90;;;;;;4863412;29;20148;-66
2022/10/25 03:00:07;;;;;;;25.27;12.00;;;12.70;99.90;;;;;;4848213;29;20064;-66
2022/10/25 03:02:33;;;;;;;26.33;12.57;;;12.70;99.90;;;;;;4849483;29;20506;-65
2022/10/25 03:04:59;;;;;;;27.25;12.38;;;12.70;99.90;;;;;;4854203;29;20063;-65
2022/10/25 03:07:25;;;;;;;25.90;12.35;;;12.70;99.90;;;;;;4881757;29;20048;-66
2022/10/25 03:09:50;;;;;;;22.60;11.93;;;12.80;99.90;;;;;;4879111;29;20059;-65
2022/10/25 03:12:16;;;;;;;26.13;12.13;;;12.80;99.90;;;;;;4879833;29;20074;-65
2022/10/25 03:14:42;;;;;;;22.35;11.93;;;12.80;99.90;;;;;;4892948;29;20048;-66
2022/10/25 03:17:08;;;;;;;21.60;12.30;;;12.80;99.90;;;;;;4915281;28;20410;-65
2022/10/25 03:19:34;;;;;;;25.17;11.48;;;12.80;99.90;;;;;;4901442;29;20063;-65
2022/10/25 03:22:00;;;;;;;24.25;10.98;;;12.80;99.90;;;;;;4898192;29;20406;-66
2022/10/25 03:24:26;;;;;;;21.92;10.35;;;12.80;99.90;;;;;;4896369;29;20052;-66
2022/10/25 03:26:51;;;;;;;19.52;9.63;;;12.80;99.90;;;;;;4880848;29;20437;-65
2022/10/25 03:29:17;;;;;;;18.80;9.77;;;12.70;99.90;;;;;;4881540;29;20059;-65
2022/10/25 03:31:43;;;;;;;20.58;10.05;;;12.70;99.90;;;;;;4883949;29;20514;-65
2022/10/25 03:34:09;;;;;;;26.92;10.05;;;12.70;99.90;;;;;;4881018;29;20080;-65
2022/10/25 03:36:34;;;;;;;19.85;10.00;;;12.70;99.90;;;;;;4881342;29;20099;-65
2022/10/25 03:39:00;;;;;;;23.63;10.02;;;12.70;99.90;;;;;;4874977;29;20074;-65
2022/10/25 03:41:26;;;;;;;20.73;8.48;;;12.70;99.90;;;;;;4913103;28;20094;-65
2022/10/25 03:43:52;;;;;;;17.30;8.75;;;12.70;99.90;;;;;;4895434;29;20211;-66
2022/10/25 03:46:17;;;;;;;22.88;9.10;;;12.70;99.90;;;;;;4903724;28;20099;-65
2022/10/25 03:48:43;;;;;;;18.83;8.70;;;12.70;99.90;;;;;;4882811;29;20057;-66
2022/10/25 03:51:09;;;;;;;23.77;8.75;;;12.70;99.90;;;;;;4867762;29;20132;-65
2022/10/25 03:53:35;;;;;;;18.15;8.55;;;12.70;99.90;;;;;;4909821;28;20052;-65
2022/10/25 03:56:01;;;;;;;22.90;8.60;;;12.60;99.90;;;;;;4893619;29;20099;-65
2022/10/25 03:58:26;;;;;;;21.58;8.90;;;12.60;99.90;;;;;;4892928;29;20078;-66
2022/10/25 04:00:52;;;;;;;20.95;8.23;;;12.60;99.90;;;;;;4886218;29;20565;-65
2022/10/25 04:03:18;;;;;;;23.33;9.50;;;12.60;99.90;;;;;;4882741;29;20127;-65
2022/10/25 04:05:44;;;;;;;21.92;8.45;;;12.60;99.90;;;;;;4894618;29;20059;-66
2022/10/25 04:08:10;;;;;;;23.27;8.98;;;12.60;99.90;;;;;;4907889;28;20054;-65
2022/10/25 04:10:35;;;;;;;24.15;9.68;;;12.50;99.90;;;;;;4908701;28;20055;-66
2022/10/25 04:13:01;;;;;;;20.15;9.70;;;12.60;99.90;;;;;;4920200;28;20052;-66
2022/10/25 04:15:27;;;;;;;22.20;9.85;;;12.60;99.90;;;;;;4889593;29;20103;-65
2022/10/25 04:17:53;;;;;;;26.55;10.18;;;12.60;99.90;;;;;;4889860;29;20080;-65
2022/10/25 04:20:19;;;;;;;24.98;10.02;;;12.60;99.90;;;;;;4920401;28;20178;-65
2022/10/25 04:22:51;;;;;;;28.30;11.07;;;12.50;99.90;;;;;;4892368;29;20071;-66
2022/10/25 04:25:17;;;;;;;22.90;10.13;;;12.50;99.90;;;;;;4888088;29;20106;-65
2022/10/25 04:27:42;;;;;;;26.63;10.13;;;12.60;99.90;;;;;;4880495;29;20048;-65
2022/10/25 04:30:08;;;;;;;22.05;10.02;;;12.50;99.90;;;;;;4895156;29;20096;-65
2022/10/25 04:32:34;;;;;;;32.08;10.35;;;12.50;99.90;;;;;;4881834;29;20044;-64
2022/10/25 04:35:00;;;;;;;27.08;10.35;;;12.50;99.90;;;;;;4893644;29;20048;-66
2022/10/25 04:37:26;;;;;;;28.50;11.43;;;12.50;99.90;;;;;;4914074;28;20056;-65
2022/10/25 04:39:52;;;;;;;28.90;10.63;;;12.50;99.90;;;;;;4879483;29;20399;-65
2022/10/25 04:42:18;;;;;;;24.30;10.50;;;12.50;99.90;;;;;;4881683;29;20056;-66
2022/10/25 04:44:44;;;;;;;23.73;10.45;;;12.50;99.90;;;;;;4911780;28;20043;-66
2022/10/25 04:47:09;;;;;;;22.02;11.02;;;12.50;99.90;;;;;;4881682;29;20066;-65
2022/10/25 04:49:35;;;;;;;26.45;10.45;;;12.50;99.90;;;;;;4878101;29;20166;-65
2022/10/25 04:52:01;;;;;;;31.95;11.13;;;12.50;99.90;;;;;;4885700;29;21066;-65
2022/10/25 04:54:27;;;;;;;28.15;10.57;;;12.40;99.90;;;;;;4879059;29;20055;-65
2022/10/25 04:56:52;;;;;;;31.80;10.88;;;12.50;99.90;;;;;;4883251;29;20402;-65
2022/10/25 04:59:18;;;;;;;26.42;10.77;;;12.40;99.90;;;;;;4898484;29;20075;-65
2022/10/25 05:01:44;;;;;;;29.73;11.48;;;12.40;99.90;;;;;;4880761;29;20056;-66
2022/10/25 05:04:10;;;;;;;27.13;10.32;;;12.40;99.90;;;;;;4862989;29;20234;-65
2022/10/25 05:06:36;;;;;;;22.75;10.55;;;12.40;99.90;;;;;;4880657;29;20049;-65
2022/10/25 05:09:03;;;;;;;25.88;10.57;;;12.40;99.90;;;;;;4881568;29;20051;-65
2022/10/25 05:11:29;;;;;;;34.47;11.45;;;12.40;99.90;;;;;;4879927;29;20502;-65
2022/10/25 05:13:54;;;;;;;23.92;11.32;;;12.30;99.90;;;;;;4895799;29;20050;-65
2022/10/25 05:16:23;;;;;;;29.80;11.85;;;12.30;99.90;;;;;;4906317;28;20060;-65
2022/10/25 05:18:53;;;;;;;25.10;10.68;;;12.30;99.90;;;;;;4876776;29;20407;-65
2022/10/25 05:21:20;;;;;;;25.27;10.82;;;12.30;99.90;;;;;;4881192;29;20763;-66
2022/10/25 05:23:46;;;;;;;28.85;11.45;;;12.20;99.90;;;;;;4914976;28;20083;-65
2022/10/25 05:26:13;;;;;;;32.55;11.55;;;12.30;99.90;;;;;;4882771;29;20487;-66
2022/10/25 05:28:40;;;;;;;34.33;13.23;;;12.30;99.90;;;;;;4911573;28;20060;-66
2022/10/25 05:31:19;;;;;;;25.42;11.85;;;12.30;99.90;;;;;;4874807;29;20916;-66
2022/10/25 05:33:48;;;;;;;31.83;12.07;;;12.30;99.90;;;;;;4877937;29;20114;-65
2022/10/25 05:36:17;;;;;;;28.27;12.40;;;12.20;99.90;;;;;;4896631;29;20775;-66
2022/10/25 05:38:43;;;;;;;27.48;12.18;;;12.30;99.90;;;;;;4914101;28;20079;-66
2022/10/25 05:41:10;;;;;;;34.42;12.93;;;12.30;99.90;;;;;;4914303;28;20112;-66
2022/10/25 05:43:36;;;;;;;31.75;13.75;;;12.30;99.90;;;;;;4886947;29;20154;-65
2022/10/25 05:46:11;;;;;;;32.78;14.88;;;12.30;99.90;;;;;;4897876;29;20418;-66
2022/10/25 05:48:38;;;;;;;38.55;15.43;;;12.40;99.90;;;;;;4883632;29;20067;-66
2022/10/25 05:51:12;;;;;;;36.72;14.02;;;12.40;99.90;;;;;;4885176;29;20048;-65
2022/10/25 05:53:46;;;;;;;37.85;14.25;;;12.40;99.90;;;;;;4892301;29;20502;-65
2022/10/25 05:56:13;;;;;;;40.70;15.10;;;12.40;99.90;;;;;;4889050;29;20098;-66
2022/10/25 05:58:39;;;;;;;45.45;14.40;;;12.40;99.90;;;;;;4888990;29;20056;-65
2022/10/25 06:01:08;;;;;;;39.03;14.45;;;12.50;99.90;;;;;;4883450;29;20055;-66
2022/10/25 06:03:34;;;;;;;37.08;14.52;;;12.50;99.90;;;;;;4882728;29;20080;-64
2022/10/25 06:06:02;;;;;;;39.20;14.52;;;12.50;99.90;;;;;;4896374;29;20630;-64
2022/10/25 06:08:29;;;;;;;29.83;13.15;;;12.50;99.90;;;;;;4887965;29;20051;-64
2022/10/25 06:10:59;;;;;;;34.63;13.43;;;12.50;99.90;;;;;;4883960;29;20040;-57
2022/10/25 06:13:24;;;;;;;32.80;12.57;;;12.50;99.90;;;;;;4888887;29;20044;-56
2022/10/25 06:15:50;;;;;;;31.52;11.93;;;12.50;99.90;;;;;;4892277;29;20860;-57
2022/10/25 06:18:16;;;;;;;33.20;12.70;;;12.50;99.90;;;;;;4890151;29;20110;-57
2022/10/25 06:20:42;;;;;;;34.05;11.65;;;12.50;99.90;;;;;;4886590;29;20198;-54
2022/10/25 06:23:07;;;;;;;33.80;11.20;;;12.50;99.90;;;;;;4887781;29;20566;-57
2022/10/25 06:25:33;;;;;;;28.40;10.82;;;12.50;99.90;;;;;;4888416;29;20056;-56
2022/10/25 06:27:59;;;;;;;29.05;10.27;;;12.50;99.90;;;;;;4888844;29;20507;-57
2022/10/25 06:30:25;;;;;;;26.45;9.55;;;12.50;99.90;;;;;;4885886;29;20048;-56
2022/10/25 06:32:53;;;;;;;27.55;9.55;;;12.50;99.90;;;;;;4897769;29;20056;-56
2022/10/25 06:35:19;;;;;;;24.13;9.52;;;12.40;99.90;;;;;;4891742;29;20562;-56
2022/10/25 06:37:45;;;;;;;32.35;9.77;;;12.40;99.90;;;;;;4886453;29;20148;-57
2022/10/25 06:40:11;;;;;;;28.77;9.52;;;12.40;99.90;;;;;;4889026;29;20118;-57
2022/10/25 06:42:37;;;;;;;24.92;9.43;;;12.40;99.90;;;;;;4890795;29;20052;-57
2022/10/25 06:45:03;;;;;;;34.30;10.30;;;12.40;99.90;;;;;;4885517;29;20106;-57
2022/10/25 06:47:29;;;;;;;20.85;9.98;;;12.40;99.90;;;;;;4917077;28;20052;-56
2022/10/25 06:49:55;;;;;;;26.55;9.63;;;12.40;99.90;;;;;;4883591;29;20051;-58
2022/10/25 06:52:20;;;;;;;24.70;9.45;;;12.40;99.90;;;;;;4892400;29;20051;-55
2022/10/25 06:54:46;;;;;;;24.05;9.52;;;12.40;99.90;;;;;;4897654;29;20044;-56
2022/10/25 06:57:12;;;;;;;27.85;9.75;;;12.40;99.90;;;;;;4890538;29;20059;-56
2022/10/25 06:59:38;;;;;;;26.75;9.13;;;12.40;99.90;;;;;;4888784;29;20543;-55
2022/10/25 07:02:03;;;;;;;25.70;9.18;;;12.40;99.90;;;;;;4885836;29;20471;-57
2022/10/25 07:04:31;;;;;;;30.42;8.68;;;12.40;99.90;;;;;;4888641;29;20063;-56
2022/10/25 07:06:57;;;;;;;21.63;8.63;;;12.30;99.90;;;;;;4882423;29;20052;-56
2022/10/25 07:09:26;;;;;;;37.75;9.07;;;12.40;99.90;;;;;;4887104;29;20041;-56
2022/10/25 07:11:52;;;;;;;20.92;8.05;;;12.40;99.90;;;;;;4889334;29;20076;-57
2022/10/25 07:14:18;;;;;;;24.92;8.63;;;12.40;99.90;;;;;;4893366;29;20637;-58
2022/10/25 07:16:43;;;;;;;22.45;8.25;;;12.40;99.90;;;;;;4884606;29;20759;-55
2022/10/25 07:19:09;;;;;;;27.40;7.97;;;12.40;99.90;;;;;;4890259;29;20056;-57
2022/10/25 07:21:35;;;;;;;25.23;8.68;;;12.40;99.90;;;;;;4884864;29;20087;-56
2022/10/25 07:24:01;;;;;;;24.02;7.40;;;12.40;99.90;;;;;;4916349;28;20052;-57
2022/10/25 07:26:29;;;;;;;24.25;8.00;;;12.40;99.90;;;;;;4892278;29;20059;-56
2022/10/25 07:28:57;;;;;;;28.95;8.57;;;12.40;99.90;;;;;;4887536;29;20048;-57
2022/10/25 07:31:32;;;;;;;23.85;7.95;;;12.40;99.90;;;;;;4919035;28;20044;-55
2022/10/25 07:34:00;;;;;;;26.38;8.55;;;12.50;99.90;;;;;;4890434;29;20094;-57
2022/10/25 07:36:27;;;;;;;26.35;8.02;;;12.50;99.90;;;;;;4885385;29;20487;-56
2022/10/25 07:38:52;;;;;;;23.25;7.60;;;12.50;99.90;;;;;;4885482;29;20119;-56
2022/10/25 07:41:18;;;;;;;20.88;6.60;;;12.50;99.90;;;;;;4887193;29;20550;-56
2022/10/25 07:43:44;;;;;;;27.13;7.53;;;12.50;99.90;;;;;;4888155;29;20127;-57
2022/10/25 07:46:10;;;;;;;21.85;7.30;;;12.60;99.90;;;;;;4888990;29;20063;-56
2022/10/25 07:48:36;;;;;;;29.00;8.40;;;12.60;99.90;;;;;;4888994;29;20052;-56
2022/10/25 07:51:11;;;;;;;25.88;7.20;;;12.60;99.90;;;;;;4883937;29;20127;-57
2022/10/25 07:53:38;;;;;;;20.20;7.60;;;12.70;99.90;;;;;;4887783;29;20048;-57
2022/10/25 07:56:04;;;;;;;27.40;7.47;;;12.70;99.90;;;;;;4889681;29;20063;-55
2022/10/25 07:58:30;;;;;;;23.05;7.35;;;12.70;99.90;;;;;;4889413;29;20056;-56
2022/10/25 08:01:03;;;;;;;25.23;7.40;;;12.80;99.90;;;;;;4887454;29;20444;-56
2022/10/25 08:03:29;;;;;;;26.20;7.50;;;12.80;99.90;;;;;;4879784;29;20803;-57
2022/10/25 08:05:55;;;;;;;21.73;7.10;;;12.90;99.90;;;;;;4916098;28;20070;-57
2022/10/25 08:08:22;;;;;;;23.50;7.25;;;13.00;99.90;;;;;;4887011;29;20132;-57
2022/10/25 08:10:49;;;;;;;17.90;7.22;;;12.90;99.90;;;;;;4885559;29;20052;-56
2022/10/25 08:13:14;;;;;;;23.42;7.03;;;13.00;99.90;;;;;;4891034;29;20052;-56
2022/10/25 08:15:40;;;;;;;20.42;7.13;;;13.00;99.90;;;;;;4878374;29;20048;-57
2022/10/25 08:18:08;;;;;;;24.73;7.28;;;13.10;99.90;;;;;;4888093;29;20096;-57
2022/10/25 08:20:34;;;;;;;23.67;7.13;;;13.10;99.90;;;;;;4885455;29;20080;-57
2022/10/25 08:23:00;;;;;;;25.00;7.15;;;13.10;99.90;;;;;;4888670;29;20131;-56
2022/10/25 08:25:27;;;;;;;24.27;6.93;;;13.20;99.90;;;;;;4885756;29;26487;-57
2022/10/25 08:27:53;;;;;;;28.00;7.32;;;13.20;99.90;;;;;;4890880;29;20055;-55
2022/10/25 08:30:19;;;;;;;21.85;6.90;;;13.30;99.90;;;;;;4900787;29;20048;-56
2022/10/25 08:32:45;;;;;;;20.95;6.80;;;13.30;99.90;;;;;;4886900;29;20049;-57
2022/10/25 08:35:11;;;;;;;20.33;6.97;;;13.40;99.90;;;;;;4887664;29;20055;-55
2022/10/25 08:37:36;;;;;;;28.02;6.90;;;13.40;99.90;;;;;;4890342;29;20060;-55
2022/10/25 08:40:03;;;;;;;24.38;6.72;;;13.50;99.90;;;;;;4885205;29;20048;-57
2022/10/25 08:42:32;;;;;;;23.63;7.30;;;13.60;99.90;;;;;;4885546;29;21387;-56
2022/10/25 08:45:08;;;;;;;18.83;7.28;;;13.60;99.90;;;;;;4887369;29;20049;-57
2022/10/25 08:47:40;;;;;;;24.00;7.43;;;13.70;99.90;;;;;;4885710;29;20067;-57
2022/10/25 08:50:37;;;;;;;25.20;7.63;;;13.80;99.90;;;;;;4882593;29;20052;-57
2022/10/25 08:53:11;;;;;;;24.08;7.50;;;13.80;99.90;;;;;;4885759;29;20052;-58
2022/10/25 08:55:42;;;;;;;25.00;8.00;;;13.90;99.90;;;;;;4883615;29;20040;-57
2022/10/25 08:58:16;;;;;;;25.02;7.75;;;14.00;99.90;;;;;;4884372;29;20512;-56
2022/10/25 09:00:44;;;;;;;28.60;8.43;;;14.10;99.90;;;;;;4881796;29;20044;-57
2022/10/25 09:03:16;;;;;;;28.05;7.63;;;14.20;99.90;;;;;;4887142;29;20049;-56
2022/10/25 09:05:48;;;;;;;22.98;7.40;;;14.30;99.90;;;;;;4886136;29;20056;-57
2022/10/25 09:08:39;;;;;;;20.77;7.38;;;14.30;99.90;;;;;;4902688;29;20131;-57
2022/10/25 09:11:26;;;;;;;25.98;7.68;;;14.30;99.90;;;;;;4888932;29;20455;-56
2022/10/25 09:13:58;;;;;;;24.38;8.25;;;14.40;99.90;;;;;;4884858;29;20521;-56
2022/10/25 09:16:43;;;;;;;28.50;9.57;;;14.40;99.90;;;;;;4884337;29;20052;-57
2022/10/25 09:19:45;;;;;;;22.55;8.43;;;14.50;99.90;;;;;;4886168;29;20059;-58
2022/10/25 09:22:21;;;;;;;20.58;8.50;;;14.50;99.90;;;;;;4885186;29;20050;-57
2022/10/25 09:25:00;;;;;;;23.88;8.32;;;14.60;99.90;;;;;;4886223;29;20206;-57
2022/10/25 09:27:35;;;;;;;20.38;7.78;;;14.70;99.90;;;;;;4889357;29;20048;-57
2022/10/25 09:30:01;;;;;;;20.60;7.72;;;14.70;99.90;;;;;;4897955;29;20056;-57
2022/10/25 09:32:46;;;;;;;23.13;8.27;;;14.70;99.90;;;;;;4889231;29;20056;-56
2022/10/25 09:35:48;;;;;;;19.55;7.40;;;14.70;99.90;;;;;;4888499;29;20059;-57
2022/10/25 09:38:37;;;;;;;24.50;7.88;;;14.80;99.90;;;;;;4893372;29;20479;-58
2022/10/25 09:41:31;;;;;;;21.35;6.93;;;14.80;99.90;;;;;;4890818;29;20067;-57
2022/10/25 09:44:00;;;;;;;20.83;7.32;;;14.90;99.90;;;;;;4889541;29;20060;-58
2022/10/25 09:46:46;;;;;;;22.02;6.75;;;15.00;99.90;;;;;;4887681;29;20056;-58
2022/10/25 09:49:34;;;;;;;21.23;7.13;;;15.00;99.90;;;;;;4887551;29;20102;-56
2022/10/25 09:52:18;;;;;;;17.90;6.07;;;15.00;99.90;;;;;;4889194;29;20079;-57
2022/10/25 09:55:13;;;;;;;25.27;6.15;;;15.00;99.90;;;;;;4887156;29;20056;-57
2022/10/25 09:57:39;;;;;;;21.48;6.50;;;15.00;99.90;;;;;;4889025;29;20249;-56
2022/10/25 10:00:05;;;;;;;17.45;5.95;;;15.00;99.90;;;;;;4888539;29;20835;-56
2022/10/25 10:02:31;;;;;;;18.95;5.38;;;15.00;99.90;;;;;;4891018;29;20091;-58
2022/10/25 10:04:57;;;;;;;16.00;5.53;;;15.00;99.90;;;;;;4890959;29;20174;-57
2022/10/25 10:07:26;;;;;;;14.43;4.65;;;14.90;99.90;;;;;;4897254;29;20131;-58
2022/10/25 10:09:55;;;;;;;16.58;4.35;;;14.90;99.90;;;;;;4895961;29;20108;-57
2022/10/25 10:12:31;;;;;;;18.42;4.75;;;14.90;99.90;;;;;;4896292;29;20127;-58
2022/10/25 10:15:02;;;;;;;23.80;5.30;;;14.90;99.90;;;;;;4895729;29;20068;-58
2022/10/25 10:17:29;;;;;;;18.45;4.35;;;14.90;99.90;;;;;;4896758;29;20520;-57
2022/10/25 10:20:12;;;;;;;16.08;4.47;;;14.90;99.90;;;;;;4890918;29;20090;-56
2022/10/25 10:22:51;;;;;;;;;;;14.90;99.90;;;;;;4888226;29;20055;-58
2022/10/25 10:25:28;;;;;;;15.02;3.53;;;15.00;99.90;;;;;;4886586;29;19927;-58
2022/10/25 10:27:56;;;;;;;20.25;4.40;;;15.00;99.90;;;;;;4878323;29;20056;-56
2022/10/25 10:30:28;;;;;;;18.95;3.63;;;15.20;99.90;;;;;;4882898;29;20040;-56
2022/10/25 10:32:58;;;;;;;16.70;3.83;;;15.40;99.90;;;;;;4891053;29;20052;-56
2022/10/25 10:35:31;;;;;;;12.65;3.50;;;15.40;99.90;;;;;;4886047;29;20048;-57
2022/10/25 10:38:32;;;;;;;12.38;3.30;;;15.60;99.90;;;;;;4889434;29;20471;-57
2022/10/25 10:41:22;;;;;;;17.10;2.97;;;15.70;99.90;;;;;;4880626;29;20435;-56
2022/10/25 10:43:48;;;;;;;15.57;2.90;;;15.70;99.90;;;;;;4886495;29;20407;-56
2022/10/25 10:46:16;;;;;;;16.45;2.85;;;15.70;99.90;;;;;;4888998;29;20067;-57
2022/10/25 10:48:51;;;;;;;12.95;3.13;;;15.60;99.90;;;;;;4886060;29;20051;-57
2022/10/25 10:51:20;;;;;;;14.73;3.05;;;15.50;99.90;;;;;;4885751;29;20052;-57
2022/10/25 10:53:46;;;;;;;17.00;3.45;;;15.50;99.90;;;;;;4886870;29;20682;-56
2022/10/25 10:56:22;;;;;;;15.27;3.22;;;15.50;99.90;;;;;;4883604;29;20395;-57
2022/10/25 10:58:49;;;;;;;16.40;3.00;;;15.50;99.90;;;;;;4901729;29;20071;-58
2022/10/25 11:01:30;;;;;;;15.60;3.05;;;15.50;99.90;;;;;;4897807;29;20518;-57
2022/10/25 11:03:57;;;;;;;16.48;2.63;;;15.60;99.90;;;;;;4883183;29;20556;-54
2022/10/25 11:06:35;;;;;;;14.18;2.75;;;15.50;99.90;;;;;;4878359;29;20066;-53
2022/10/25 11:09:19;;;;;;;18.13;2.58;;;15.60;99.90;;;;;;4884638;29;20608;-53
2022/10/25 11:12:05;;;;;;;11.10;3.08;;;15.60;99.90;;;;;;4886141;29;20147;-61
2022/10/25 11:14:31;;;;;;;16.20;2.95;;;15.60;99.90;;;;;;4875839;29;20487;-61
2022/10/25 11:17:08;;;;;;;15.77;2.95;;;15.60;99.90;;;;;;4865110;29;20055;-60
2022/10/25 11:20:00;;;;;;;14.70;2.67;;;15.60;99.90;;;;;;4880551;29;20487;-61
2022/10/25 11:22:32;;;;;;;13.00;2.63;;;15.60;99.90;;;;;;4881614;29;20083;-61
2022/10/25 11:25:28;;;;;;;13.57;2.30;;;15.70;99.90;;;;;;4882015;29;20055;-61
2022/10/25 11:28:10;;;;;;;16.77;2.38;;;15.70;99.90;;;;;;4879489;29;21179;-59
2022/10/25 11:31:04;;;;;;;13.70;2.83;;;15.70;99.90;;;;;;4883304;29;20056;-61
2022/10/25 11:34:06;;;;;;;9.98;2.30;;;15.70;99.90;;;;;;4884784;29;20052;-61
2022/10/25 11:36:50;;;;;;;9.48;2.28;;;15.70;99.90;;;;;;4878406;29;20127;-61
2022/10/25 11:39:16;;;;;;;12.80;2.30;;;15.70;99.90;;;;;;4878912;29;20762;-61
2022/10/25 11:41:52;;;;;;;14.27;2.28;;;15.70;99.90;;;;;;4879499;29;20096;-61
2022/10/25 11:44:52;;;;;;;10.18;2.10;;;15.90;99.90;;;;;;4880602;29;20518;-61
2022/10/25 11:47:33;;;;;;;14.13;2.58;;;16.10;99.90;;;;;;4910539;28;20123;-61
2022/10/25 11:50:14;;;;;;;13.95;2.90;;;16.40;99.90;;;;;;4880757;29;20048;-61
2022/10/25 11:53:03;;;;;;;11.43;2.33;;;16.60;99.90;;;;;;4882180;29;20063;-61
2022/10/25 11:55:46;;;;;;;11.32;2.45;;;16.60;99.90;;;;;;4880546;29;20621;-61
2022/10/25 11:58:18;;;;;;;9.45;2.70;;;16.60;99.90;;;;;;4883848;29;20590;-61
2022/10/25 12:01:17;;;;;;;14.43;3.15;;;16.60;99.90;;;;;;4881412;29;20047;-61
2022/10/25 12:04:21;;;;;;;12.43;3.10;;;16.70;99.90;;;;;;4882867;29;20080;-61
2022/10/25 12:07:21;;;;;;;11.43;2.60;;;16.70;99.90;;;;;;4882196;29;20071;-61
2022/10/25 12:09:56;;;;;;;12.23;3.10;;;16.70;99.90;;;;;;4877906;29;20167;-61
2022/10/25 12:12:37;;;;;;;8.52;2.58;;;16.70;99.90;;;;;;4881006;29;20155;-61
2022/10/25 12:15:04;;;;;;;11.52;2.88;;;16.70;99.90;;;;;;4879583;29;20052;-61
2022/10/25 12:17:32;;;;;;;10.90;2.95;;;16.70;99.90;;;;;;4893587;29;20494;-61
2022/10/25 12:20:03;;;;;;;7.18;2.60;;;16.70;99.90;;;;;;4880472;29;20088;-61
2022/10/25 12:22:44;;;;;;;11.50;2.65;;;16.90;99.90;;;;;;4881322;29;20091;-58
2022/10/25 12:25:13;;;;;;;10.55;2.92;;;17.10;99.90;;;;;;4881308;29;20076;-61
2022/10/25 12:27:41;;;;;;;10.63;2.35;;;17.30;99.90;;;;;;4880956;29;20131;-60
2022/10/25 12:30:14;;;;;;;7.28;2.00;;;17.40;99.90;;;;;;4881876;29;20495;-60
2022/10/25 12:32:50;;;;;;;7.88;1.85;;;17.50;99.90;;;;;;4881668;29;20148;-60
2022/10/25 12:35:18;;;;;;;9.38;2.03;;;17.50;99.90;;;;;;4889539;29;20147;-61
2022/10/25 12:37:51;;;;;;;8.73;2.35;;;17.60;99.90;;;;;;4883453;29;20056;-61
2022/10/25 12:40:20;;;;;;;11.82;2.25;;;17.60;99.90;;;;;;4878076;29;20048;-62
2022/10/25 12:42:56;;;;;;;8.02;2.40;;;17.50;99.90;;;;;;4884716;29;20135;-60
2022/10/25 12:45:32;;;;;;;10.88;2.85;;;17.40;99.90;;;;;;4882868;29;20107;-61
2022/10/25 12:48:33;;;;;;;6.97;2.38;;;17.40;99.90;;;;;;4878726;29;20056;-61
2022/10/25 12:50:59;;;;;;;10.77;2.50;;;17.50;99.90;;;;;;4877301;29;20052;-61
2022/10/25 12:53:54;;;;;;;10.95;2.42;;;17.70;99.90;;;;;;4880675;29;20065;-61
2022/10/25 12:56:52;;;;;;;9.65;2.40;;;17.80;99.90;;;;;;4880790;29;20356;-60
2022/10/25 12:59:41;;;;;;;12.13;2.40;;;17.70;99.90;;;;;;4878089;29;20048;-61
2022/10/25 13:02:15;;;;;;;10.40;2.40;;;17.60;99.90;;;;;;4878529;29;20064;-60